This is the latest recevied weather packets stored in our database for station/object SP9KB-13. If no packets are shown the sender has not sent any weather packets the latest 1 day(s).
| Time | Temp. | Humidity | Pressure | Rain* | Wind** | Luminosity | Snow |
|---|---|---|---|---|---|---|---|
| 1778027274 | 13.89° C | 50% | 990.7 hPa | 0 mm | 0.89 m/s, 221° | - | - |
| 1778026973 | 14.44° C | 51% | 990.7 hPa | 0 mm | 0 m/s | - | - |
| 1778026673 | 14.44° C | 49% | 990.5 hPa | 0 mm | 0.89 m/s, 233° | - | - |
| 1778026373 | 14.44° C | 51% | 990.5 hPa | 0 mm | 0.89 m/s, 247° | - | - |
| 1778026072 | 13.89° C | 53% | 990.4 hPa | 0 mm | 0.89 m/s, 207° | - | - |
| 1778025772 | 13.33° C | 54% | 990.5 hPa | 0 mm | 0.45 m/s, 235° | - | - |
| 1778025471 | 13.33° C | 55% | 990.5 hPa | 0 mm | 0.45 m/s, 238° | - | - |
| 1778025171 | 13.33° C | 55% | 990.5 hPa | 0 mm | 0.45 m/s, 224° | - | - |
| 1778024870 | 13.33° C | 53% | 990.6 hPa | 0 mm | 0.89 m/s, 257° | - | - |
| 1778024570 | 12.78° C | 56% | 990.6 hPa | 0 mm | 0.45 m/s, 229° | - | - |
| 1778024269 | 12.22° C | 58% | 990.6 hPa | 0 mm | 0.45 m/s, 234° | - | - |
| 1778023969 | 11.11° C | 63% | 990.7 hPa | 0 mm | 0.45 m/s, 233° | - | - |
| 1778023668 | 10.56° C | 65% | 990.7 hPa | 0 mm | 0.45 m/s, 229° | - | - |
| 1778023368 | 10° C | 69% | 990.7 hPa | 0 mm | 0 m/s | - | - |
| 1778023067 | 10.56° C | 70% | 990.8 hPa | 0 mm | 0 m/s | - | - |
| 1778022767 | 10° C | 67% | 991 hPa | 0 mm | 0.45 m/s, 228° | - | - |
| 1778022466 | 9.44° C | 71% | 990.9 hPa | 0 mm | 0.45 m/s, 228° | - | - |
| 1778022166 | 9.44° C | 73% | 990.9 hPa | 0 mm | 0.45 m/s, 228° | - | - |
| 1778021865 | 9.44° C | 73% | 990.9 hPa | 0 mm | 0.45 m/s, 228° | - | - |
| 1778021564 | 9.44° C | 73% | 991 hPa | 0 mm | 0.89 m/s, 228° | - | - |
| 1778021264 | 8.89° C | 74% | 991.2 hPa | 0 mm | 0.89 m/s, 228° | - | - |
| 1778020963 | 8.89° C | 74% | 991.1 hPa | 0 mm | 0.89 m/s, 227° | - | - |
| 1778020663 | 8.89° C | 75% | 991.1 hPa | 0 mm | 0.89 m/s, 230° | - | - |
| 1778020362 | 8.33° C | 76% | 991.1 hPa | 0 mm | 0.45 m/s, 227° | - | - |
| 1778020062 | 7.78° C | 80% | 991.2 hPa | 0 mm | 0.89 m/s, 227° | - | - |
* Rain latest hour (hover to see other rain measurements)
** Current wind speed in m/s (hover to see current wind gust speed)